Time;durP1;ratioP1;P1;durP2;ratioP2;P2;SDS_P1;SDS_P2;PMS_P1;PMS_P2;Temp;Humidity;BMP_temperature;BMP_pressure;BME280_temperature;BME280_humidity;BME280_pressure;Samples;Min_cycle;Max_cycle;Signal;HPM_P1;HPM_P2
2023/01/07 00:00:31;;;;;;;5.17;1.33;;;12.70;99.90;;;;;;5026550;28;20170;-60
2023/01/07 00:02:57;;;;;;;6.63;1.37;;;12.70;99.90;;;;;;5028311;28;20703;-59
2023/01/07 00:05:23;;;;;;;7.70;1.63;;;12.60;99.90;;;;;;5030924;28;20649;-60
2023/01/07 00:07:48;;;;;;;5.00;1.43;;;12.70;99.90;;;;;;5030869;28;20236;-59
2023/01/07 00:10:14;;;;;;;8.07;2.00;;;12.70;99.90;;;;;;5019077;28;20221;-60
2023/01/07 00:12:39;;;;;;;9.57;1.57;;;12.60;99.90;;;;;;5018157;28;20232;-60
2023/01/07 00:15:06;;;;;;;9.90;1.63;;;12.50;99.90;;;;;;5030778;28;20185;-60
2023/01/07 00:17:31;;;;;;;5.07;1.30;;;12.50;99.90;;;;;;5030568;28;20186;-60
2023/01/07 00:19:57;;;;;;;7.30;1.50;;;12.40;99.90;;;;;;5030927;28;20534;-60
2023/01/07 00:22:22;;;;;;;12.37;2.10;;;12.30;99.90;;;;;;5029165;28;20257;-59
2023/01/07 00:24:48;;;;;;;4.67;1.27;;;12.20;99.90;;;;;;5019492;28;20195;-62
2023/01/07 00:27:13;;;;;;;3.33;1.60;;;12.20;99.90;;;;;;5030558;28;20189;-61
2023/01/07 00:29:39;;;;;;;9.00;2.07;;;12.20;99.90;;;;;;5029561;28;20185;-62
2023/01/07 00:32:05;;;;;;;8.80;2.00;;;12.20;99.90;;;;;;5027720;28;20264;-61
2023/01/07 00:34:30;;;;;;;5.80;1.60;;;12.10;99.90;;;;;;5011146;28;20171;-61
2023/01/07 00:37:48;;;;;;;8.20;2.20;;;12.20;99.90;;;;;;5025287;28;20214;-61
2023/01/07 00:39:41;;;;;;;7.87;1.93;;;12.10;99.90;;;;;;5022711;28;20261;-61
2023/01/07 00:44:51;;;;;;;13.27;1.90;;;11.80;99.90;;;;;;5011351;28;20664;-60
2023/01/07 00:47:16;;;;;;;12.47;2.37;;;12.10;99.90;;;;;;5019040;28;20178;-61
2023/01/07 00:49:42;;;;;;;12.60;2.00;;;12.20;99.90;;;;;;5031037;28;20165;-61
2023/01/07 00:52:08;;;;;;;12.67;2.10;;;12.20;99.90;;;;;;5030762;28;20205;-60
2023/01/07 00:54:33;;;;;;;13.80;1.83;;;12.20;99.90;;;;;;5030809;28;20173;-61
2023/01/07 00:56:59;;;;;;;9.63;2.27;;;12.20;99.90;;;;;;5030831;28;20653;-61
2023/01/07 00:59:24;;;;;;;7.00;1.70;;;12.30;99.90;;;;;;5033557;28;20173;-61
2023/01/07 01:01:50;;;;;;;13.93;1.73;;;12.40;99.90;;;;;;5027536;28;20278;-61
2023/01/07 01:04:16;;;;;;;5.30;1.43;;;12.40;99.90;;;;;;5034522;28;20696;-60
2023/01/07 01:06:41;;;;;;;4.37;1.20;;;12.40;99.90;;;;;;5034554;28;20242;-61
2023/01/07 01:09:07;;;;;;;5.70;1.77;;;12.40;99.90;;;;;;5034558;28;20158;-61
2023/01/07 01:11:33;;;;;;;6.73;1.47;;;12.50;99.90;;;;;;5034522;28;20228;-61
2023/01/07 01:13:59;;;;;;;15.43;1.63;;;12.50;99.90;;;;;;5032499;28;20169;-61
2023/01/07 01:16:24;;;;;;;17.20;2.50;;;12.60;99.90;;;;;;5034329;28;20177;-58
2023/01/07 01:18:50;;;;;;;8.93;2.07;;;12.60;99.90;;;;;;5033723;28;20205;-62
2023/01/07 01:21:16;;;;;;;12.20;2.53;;;12.70;99.90;;;;;;5034008;28;20275;-61
2023/01/07 01:23:42;;;;;;;7.20;2.03;;;12.70;99.90;;;;;;5033892;28;20169;-61
2023/01/07 01:26:15;;;;;;;6.57;1.87;;;12.70;99.90;;;;;;5033923;28;20174;-61
2023/01/07 01:28:42;;;;;;;11.10;1.30;;;12.50;99.90;;;;;;5033934;28;20189;-61
2023/01/07 01:31:08;;;;;;;4.33;1.43;;;12.30;99.90;;;;;;5033698;28;20209;-61
2023/01/07 01:33:34;;;;;;;7.67;1.53;;;12.20;99.90;;;;;;5033655;28;20232;-61
2023/01/07 01:36:06;;;;;;;2.83;1.23;;;12.10;99.90;;;;;;5032083;28;20174;-61
2023/01/07 01:38:32;;;;;;;3.13;1.20;;;12.00;99.90;;;;;;5032781;28;20170;-61
2023/01/07 01:40:58;;;;;;;9.23;1.93;;;12.10;99.90;;;;;;5033882;28;20231;-61
2023/01/07 01:43:35;;;;;;;5.73;1.40;;;12.10;99.90;;;;;;5032236;28;20181;-61
2023/01/07 01:46:10;;;;;;;10.07;2.30;;;12.10;99.90;;;;;;5033837;28;20176;-61
2023/01/07 01:48:40;;;;;;;11.90;2.57;;;12.20;99.90;;;;;;5033738;28;20182;-60
2023/01/07 01:51:09;;;;;;;3.77;1.40;;;12.20;99.90;;;;;;5033771;28;20233;-61
2023/01/07 01:53:35;;;;;;;7.03;1.20;;;;;;;;;;5033572;28;20223;-61
2023/01/07 01:56:10;;;;;;;15.10;2.07;;;12.20;99.90;;;;;;5033614;28;20173;-61
2023/01/07 01:58:40;;;;;;;8.27;1.30;;;12.20;99.90;;;;;;5033671;28;20185;-60
2023/01/07 02:01:06;;;;;;;6.93;1.47;;;12.30;99.90;;;;;;5033387;28;20261;-60
2023/01/07 02:03:34;;;;;;;4.53;1.23;;;12.30;99.90;;;;;;5031908;28;20323;-61
2023/01/07 02:06:00;;;;;;;6.80;1.20;;;12.30;99.90;;;;;;5033440;28;20185;-60
2023/01/07 02:08:26;;;;;;;3.63;1.10;;;12.30;99.90;;;;;;5033066;28;20182;-61
2023/01/07 02:11:17;;;;;;;8.10;1.57;;;12.30;99.90;;;;;;5025579;28;20214;-61
2023/01/07 02:14:16;;;;;;;8.67;2.20;;;12.30;99.90;;;;;;5032021;28;20716;-60
2023/01/07 02:16:48;;;;;;;3.40;1.03;;;12.40;99.90;;;;;;5032658;28;20190;-60
2023/01/07 02:19:53;;;;;;;11.67;1.90;;;12.30;99.90;;;;;;5032602;28;20612;-61
2023/01/07 02:22:34;;;;;;;2.97;1.20;;;12.40;99.90;;;;;;5033039;28;20201;-60
2023/01/07 02:25:17;;;;;;;7.03;1.63;;;12.40;99.90;;;;;;5032974;28;20181;-61
2023/01/07 02:28:01;;;;;;;7.37;1.27;;;12.40;99.90;;;;;;5032741;28;20181;-61
2023/01/07 02:30:35;;;;;;;6.67;1.63;;;12.50;99.90;;;;;;5031210;28;20187;-61
2023/01/07 02:33:16;;;;;;;4.83;1.60;;;12.50;99.90;;;;;;5032647;28;20283;-59
2023/01/07 02:35:53;;;;;;;12.13;1.40;;;12.50;99.90;;;;;;5032370;28;20193;-62
2023/01/07 02:38:40;;;;;;;5.07;1.57;;;12.40;99.90;;;;;;5029018;28;20210;-62
2023/01/07 02:41:27;;;;;;;9.87;1.73;;;12.40;99.90;;;;;;5027436;28;20236;-62
2023/01/07 02:43:53;;;;;;;9.53;1.57;;;12.50;99.90;;;;;;5032068;28;20182;-61
2023/01/07 02:46:22;;;;;;;6.87;1.77;;;12.40;99.90;;;;;;5032348;28;20185;-62
2023/01/07 02:48:48;;;;;;;8.07;1.80;;;11.80;99.90;;;;;;5032284;28;20620;-61
2023/01/07 02:51:14;;;;;;;4.57;1.17;;;;;;;;;;5032409;28;20660;-62
2023/01/07 02:53:44;;;;;;;6.00;1.57;;;12.30;99.90;;;;;;5032278;28;20224;-62
2023/01/07 02:56:26;;;;;;;7.50;1.20;;;12.20;99.90;;;;;;5032561;28;20185;-62
2023/01/07 02:59:03;;;;;;;7.93;2.03;;;12.30;99.90;;;;;;5032311;28;20177;-62
2023/01/07 03:02:22;;;;;;;8.60;2.03;;;12.30;99.90;;;;;;5032280;28;20264;-62
2023/01/07 03:05:15;;;;;;;11.57;2.20;;;12.30;99.90;;;;;;4954614;28;20219;-61
2023/01/07 03:08:01;;;;;;;10.77;2.07;;;12.30;99.90;;;;;;5031719;28;20185;-61
2023/01/07 03:10:35;;;;;;;3.67;1.30;;;12.30;99.90;;;;;;5032210;28;20169;-62
2023/01/07 03:13:10;;;;;;;5.53;1.97;;;12.30;99.90;;;;;;5030793;28;20216;-62
2023/01/07 03:16:04;;;;;;;14.73;2.23;;;12.30;99.90;;;;;;5032090;28;20177;-62
2023/01/07 03:18:35;;;;;;;13.40;2.00;;;12.10;99.90;;;;;;5027487;28;20284;-63
2023/01/07 03:21:07;;;;;;;7.17;1.43;;;12.00;99.90;;;;;;5010016;28;20673;-62
2023/01/07 03:23:37;;;;;;;7.50;1.63;;;12.00;99.90;;;;;;5022746;28;20178;-63
2023/01/07 03:26:05;;;;;;;2.97;0.70;;;12.10;99.90;;;;;;5012738;28;20190;-62
2023/01/07 03:28:36;;;;;;;5.60;1.60;;;11.90;99.90;;;;;;5011501;28;20197;-65
2023/01/07 03:31:04;;;;;;;5.43;1.60;;;11.90;99.90;;;;;;5008406;28;20677;-63
2023/01/07 03:33:49;;;;;;;9.13;2.47;;;11.80;99.90;;;;;;5012105;28;20261;-61
2023/01/07 03:36:18;;;;;;;7.57;2.07;;;11.80;99.90;;;;;;5027027;28;20174;-62
2023/01/07 03:38:45;;;;;;;7.13;1.40;;;11.80;99.90;;;;;;5025121;28;20261;-63
2023/01/07 03:42:38;;;;;;;6.50;1.47;;;11.80;99.90;;;;;;5031334;28;20188;-63
2023/01/07 03:43:57;;;;;;;9.23;2.03;;;11.80;99.90;;;;;;5031312;28;20193;-61
2023/01/07 03:46:23;;;;;;;5.63;1.33;;;11.90;99.90;;;;;;5031008;28;20194;-60
2023/01/07 03:48:48;;;;;;;11.43;1.73;;;11.80;99.90;;;;;;5030730;28;20719;-61
2023/01/07 03:51:14;;;;;;;7.03;2.10;;;11.90;99.90;;;;;;5031379;28;20201;-61
2023/01/07 03:53:39;;;;;;;9.07;2.20;;;12.00;99.90;;;;;;5030339;28;20186;-62
2023/01/07 03:56:05;;;;;;;6.27;1.60;;;11.90;99.90;;;;;;5030142;28;20268;-62
2023/01/07 03:58:31;;;;;;;7.63;1.73;;;11.90;99.90;;;;;;5030985;28;20518;-61
2023/01/07 04:00:56;;;;;;;6.73;1.80;;;11.90;99.90;;;;;;5031386;28;20664;-62
2023/01/07 04:03:22;;;;;;;9.07;1.97;;;12.00;99.90;;;;;;5031160;28;20178;-62
2023/01/07 04:05:47;;;;;;;6.03;1.27;;;11.90;99.90;;;;;;5030863;28;20605;-63
2023/01/07 04:08:13;;;;;;;6.73;1.77;;;11.90;99.90;;;;;;5030631;28;20213;-61
2023/01/07 04:10:38;;;;;;;8.23;2.10;;;12.00;99.90;;;;;;5030905;28;20315;-61
2023/01/07 04:13:04;;;;;;;2.40;1.30;;;12.00;99.90;;;;;;5030964;28;20545;-61
2023/01/07 04:15:30;;;;;;;5.90;2.03;;;12.00;99.90;;;;;;5030985;28;20185;-61
2023/01/07 04:17:55;;;;;;;11.90;2.60;;;12.00;99.90;;;;;;5029324;28;20188;-61
2023/01/07 04:20:21;;;;;;;13.77;2.57;;;11.90;99.90;;;;;;5029319;28;20596;-62
2023/01/07 04:22:46;;;;;;;7.63;1.60;;;12.00;99.90;;;;;;5028863;28;20178;-62
2023/01/07 04:25:12;;;;;;;12.53;2.40;;;12.00;99.90;;;;;;5022814;28;20189;-61
2023/01/07 04:27:38;;;;;;;12.23;1.93;;;12.00;99.90;;;;;;5029886;28;20651;-61
2023/01/07 04:30:04;;;;;;;10.40;2.17;;;11.90;99.90;;;;;;5030318;28;20165;-62
2023/01/07 04:32:29;;;;;;;11.50;2.70;;;11.90;99.90;;;;;;5030276;28;20206;-62
2023/01/07 04:34:55;;;;;;;13.70;2.10;;;11.90;99.90;;;;;;5030885;28;20177;-61
2023/01/07 04:37:20;;;;;;;12.03;2.30;;;11.90;99.90;;;;;;5029547;28;20182;-61
2023/01/07 04:39:46;;;;;;;9.97;2.30;;;11.70;99.90;;;;;;5030636;28;20533;-61
2023/01/07 04:42:12;;;;;;;5.53;1.70;;;11.90;99.90;;;;;;5014438;28;20174;-62
2023/01/07 04:44:37;;;;;;;6.57;1.90;;;12.50;99.90;;;;;;5030681;28;20222;-60
2023/01/07 04:47:03;;;;;;;8.60;1.97;;;11.90;99.90;;;;;;5029521;28;20247;-61
2023/01/07 04:49:28;;;;;;;11.47;2.10;;;11.80;99.90;;;;;;5030596;28;20219;-62
2023/01/07 04:51:54;;;;;;;10.13;2.10;;;;;;;;;;5030082;28;20245;-62
2023/01/07 04:54:20;;;;;;;6.83;1.80;;;11.70;99.90;;;;;;5030087;28;20177;-63
2023/01/07 04:56:46;;;;;;;8.10;1.77;;;;;;;;;;5030609;28;20656;-62
2023/01/07 04:59:12;;;;;;;18.43;2.60;;;;;;;;;;5030562;28;20186;-62
2023/01/07 05:01:37;;;;;;;10.97;1.87;;;11.90;99.90;;;;;;5030754;28;20170;-62
2023/01/07 05:04:03;;;;;;;14.10;2.30;;;11.80;99.90;;;;;;5030564;28;20590;-62
2023/01/07 05:06:29;;;;;;;11.00;2.83;;;11.80;99.90;;;;;;5030565;28;20174;-61
2023/01/07 05:08:54;;;;;;;11.57;1.87;;;11.80;99.90;;;;;;5030565;28;20646;-61
2023/01/07 05:11:20;;;;;;;10.60;2.83;;;11.80;99.90;;;;;;5030361;28;20202;-61
2023/01/07 05:13:48;;;;;;;12.13;2.80;;;11.80;99.90;;;;;;5029123;28;20197;-61
2023/01/07 05:16:13;;;;;;;9.87;2.27;;;11.80;99.90;;;;;;5030765;28;20174;-62
2023/01/07 05:18:39;;;;;;;10.10;1.93;;;11.70;99.90;;;;;;5030563;28;20185;-59
2023/01/07 05:21:05;;;;;;;11.10;2.63;;;11.70;99.90;;;;;;5030580;28;20181;-62
2023/01/07 05:23:30;;;;;;;8.13;1.53;;;11.90;99.90;;;;;;5030540;28;20178;-62
2023/01/07 05:25:56;;;;;;;6.97;2.60;;;11.80;99.90;;;;;;5030434;28;20178;-62
2023/01/07 05:28:21;;;;;;;7.67;1.53;;;11.70;99.90;;;;;;5030472;28;20210;-62
2023/01/07 05:30:47;;;;;;;6.87;1.77;;;11.80;99.90;;;;;;5029000;28;20209;-61
2023/01/07 05:33:13;;;;;;;13.10;2.63;;;12.00;99.90;;;;;;5029168;28;20185;-62
2023/01/07 05:35:38;;;;;;;11.57;1.90;;;11.90;99.90;;;;;;5027347;28;20172;-61
2023/01/07 05:38:04;;;;;;;14.63;2.23;;;11.90;99.90;;;;;;5028286;28;20197;-61
2023/01/07 05:40:29;;;;;;;7.97;1.57;;;11.90;99.90;;;;;;5021496;28;20262;-62
2023/01/07 05:42:55;;;;;;;5.27;1.70;;;11.90;99.90;;;;;;5021660;28;20593;-62
2023/01/07 05:45:21;;;;;;;9.17;1.50;;;11.90;99.90;;;;;;5032775;28;20180;-61
2023/01/07 05:47:48;;;;;;;9.73;1.60;;;11.80;99.90;;;;;;5033762;28;20260;-62
2023/01/07 05:50:13;;;;;;;8.27;1.77;;;11.90;99.90;;;;;;5033551;28;20177;-62
2023/01/07 05:52:39;;;;;;;8.13;1.63;;;11.90;99.90;;;;;;5033415;28;20284;-61
2023/01/07 05:55:05;;;;;;;11.13;1.90;;;11.80;99.90;;;;;;5033346;28;20645;-62
2023/01/07 05:57:32;;;;;;;10.23;1.47;;;11.90;99.90;;;;;;5032595;28;20182;-61
2023/01/07 05:59:57;;;;;;;9.50;1.60;;;11.90;99.90;;;;;;5033587;28;20170;-61
2023/01/07 06:02:23;;;;;;;6.90;1.60;;;11.90;99.90;;;;;;5032758;28;20771;-62
2023/01/07 06:04:48;;;;;;;11.63;1.97;;;11.90;99.90;;;;;;5033350;28;20225;-62
2023/01/07 06:07:14;;;;;;;8.03;1.40;;;11.90;99.90;;;;;;5032733;28;20186;-63
2023/01/07 06:09:40;;;;;;;11.73;1.00;;;11.80;99.90;;;;;;5033206;28;20185;-62
2023/01/07 06:12:06;;;;;;;10.17;2.00;;;11.80;99.90;;;;;;5033134;28;20214;-62
2023/01/07 06:14:31;;;;;;;10.43;2.50;;;11.80;99.90;;;;;;5032644;28;20170;-61
2023/01/07 06:16:58;;;;;;;5.57;1.50;;;11.80;99.90;;;;;;5032925;28;20578;-61
2023/01/07 06:19:25;;;;;;;9.27;1.93;;;11.80;99.90;;;;;;5033243;28;20252;-61
2023/01/07 06:21:51;;;;;;;7.03;1.40;;;11.80;99.90;;;;;;5032376;28;20184;-62
2023/01/07 06:24:16;;;;;;;2.17;1.13;;;11.80;99.90;;;;;;5032969;28;20181;-63
2023/01/07 06:26:42;;;;;;;7.27;1.60;;;11.70;99.90;;;;;;5031526;28;20224;-61
2023/01/07 06:29:09;;;;;;;8.27;1.30;;;11.70;99.90;;;;;;5025802;28;20194;-62
2023/01/07 06:31:35;;;;;;;8.87;1.30;;;11.70;99.90;;;;;;5032272;28;20212;-61
2023/01/07 06:34:00;;;;;;;15.63;2.23;;;11.70;99.90;;;;;;5032675;28;20258;-61
2023/01/07 06:36:26;;;;;;;5.73;1.53;;;11.70;99.90;;;;;;5020532;28;20178;-62
2023/01/07 06:38:51;;;;;;;12.10;1.47;;;11.80;99.90;;;;;;5028990;28;20179;-61
2023/01/07 06:41:17;;;;;;;7.40;1.63;;;11.70;99.90;;;;;;5031325;28;20178;-62
2023/01/07 06:43:43;;;;;;;6.40;1.50;;;11.70;99.90;;;;;;5032286;28;20297;-62
2023/01/07 06:46:08;;;;;;;7.87;1.70;;;11.60;99.90;;;;;;5032274;28;20182;-61
2023/01/07 06:48:34;;;;;;;14.37;2.00;;;11.70;99.90;;;;;;5032491;28;20193;-61
2023/01/07 06:50:59;;;;;;;14.83;2.27;;;11.70;99.90;;;;;;5032617;28;20448;-61
2023/01/07 06:53:25;;;;;;;8.73;1.77;;;11.70;99.90;;;;;;5031725;28;20189;-61
2023/01/07 06:55:50;;;;;;;9.00;2.07;;;11.70;99.90;;;;;;5030971;28;21034;-61
2023/01/07 06:58:16;;;;;;;11.47;2.13;;;11.70;99.90;;;;;;5032314;28;20205;-63
2023/01/07 07:00:42;;;;;;;7.30;1.27;;;11.70;99.90;;;;;;5028304;28;20228;-61
2023/01/07 07:03:08;;;;;;;9.27;1.93;;;11.70;99.90;;;;;;5031950;28;20174;-67
2023/01/07 07:05:34;;;;;;;12.33;1.93;;;11.80;99.90;;;;;;5031844;28;20281;-61
2023/01/07 07:07:59;;;;;;;15.00;2.33;;;11.70;99.90;;;;;;5032244;28;20182;-61
2023/01/07 07:10:25;;;;;;;4.03;0.90;;;11.60;99.90;;;;;;5032114;28;20169;-63
2023/01/07 07:12:51;;;;;;;8.20;1.50;;;11.70;99.90;;;;;;5032360;28;20221;-62
2023/01/07 07:15:17;;;;;;;8.60;1.60;;;11.80;99.90;;;;;;5032253;28;20655;-62
2023/01/07 07:17:42;;;;;;;7.53;1.30;;;11.70;99.90;;;;;;5032116;28;20777;-62
2023/01/07 07:20:08;;;;;;;5.03;0.87;;;11.70;99.90;;;;;;5032151;28;20655;-62
2023/01/07 07:22:34;;;;;;;7.53;1.30;;;11.60;99.90;;;;;;5031874;28;20667;-62
2023/01/07 07:25:00;;;;;;;4.60;1.30;;;11.70;99.90;;;;;;5031921;28;20166;-62
2023/01/07 07:27:25;;;;;;;7.97;1.70;;;11.70;99.90;;;;;;5031968;28;20711;-62
2023/01/07 07:29:51;;;;;;;12.13;2.10;;;12.10;99.90;;;;;;5032106;28;20174;-62
2023/01/07 07:32:16;;;;;;;8.23;1.57;;;11.70;99.90;;;;;;5031789;28;20703;-62
2023/01/07 07:34:42;;;;;;;7.03;1.80;;;11.80;99.90;;;;;;5031874;28;20243;-62
2023/01/07 07:37:08;;;;;;;4.43;1.13;;;11.90;99.90;;;;;;5024457;28;20645;-63
2023/01/07 07:39:33;;;;;;;16.40;2.30;;;12.80;99.90;;;;;;5030899;28;20189;-62
2023/01/07 07:42:02;;;;;;;12.57;2.27;;;11.90;99.90;;;;;;5031087;28;20169;-61
2023/01/07 07:44:28;;;;;;;9.47;2.10;;;11.90;99.90;;;;;;5028322;28;20265;-61
2023/01/07 07:46:53;;;;;;;12.80;2.03;;;11.90;99.90;;;;;;5031043;28;20292;-61
2023/01/07 07:49:19;;;;;;;13.50;2.77;;;12.00;99.90;;;;;;5030883;28;20186;-61
2023/01/07 07:51:45;;;;;;;11.03;2.03;;;;;;;;;;5030758;28;20742;-61
2023/01/07 07:54:10;;;;;;;17.03;2.00;;;12.00;99.90;;;;;;5031344;28;20204;-60
2023/01/07 07:56:36;;;;;;;13.10;1.53;;;11.90;99.90;;;;;;5031040;28;20205;-62
2023/01/07 07:59:02;;;;;;;19.40;2.03;;;11.90;99.90;;;;;;5030546;28;20603;-60
2023/01/07 08:01:27;;;;;;;14.07;2.63;;;12.20;99.90;;;;;;5029784;28;20683;-57
2023/01/07 08:03:53;;;;;;;9.53;2.10;;;12.00;99.90;;;;;;5030973;28;20209;-58
2023/01/07 08:06:18;;;;;;;10.53;2.20;;;11.90;99.90;;;;;;5030439;28;20193;-58
2023/01/07 08:08:44;;;;;;;12.80;1.70;;;12.10;99.90;;;;;;5030909;28;20179;-58
2023/01/07 08:11:10;;;;;;;14.47;2.87;;;12.00;99.90;;;;;;5031017;28;20202;-58
2023/01/07 08:13:35;;;;;;;13.50;1.50;;;12.00;99.90;;;;;;5031194;28;20178;-57
2023/01/07 08:16:01;;;;;;;11.50;1.80;;;12.00;99.90;;;;;;5031058;28;20188;-60
2023/01/07 08:18:27;;;;;;;9.87;2.47;;;12.00;99.90;;;;;;5029617;28;20181;-59
2023/01/07 08:20:54;;;;;;;10.00;2.10;;;;;;;;;;5030892;28;20245;-59
2023/01/07 08:23:20;;;;;;;12.77;2.00;;;11.70;99.90;;;;;;5030914;28;20174;-59
2023/01/07 08:25:46;;;;;;;12.57;2.07;;;;;;;;;;5025635;28;20555;-59
2023/01/07 08:28:12;;;;;;;15.10;2.30;;;11.70;99.90;;;;;;5020118;28;20185;-59
2023/01/07 08:30:38;;;;;;;17.73;2.70;;;11.70;99.90;;;;;;5030956;28;20220;-59
2023/01/07 08:33:07;;;;;;;9.07;1.67;;;11.70;99.90;;;;;;5028821;28;20240;-59
2023/01/07 08:35:33;;;;;;;15.23;2.40;;;11.80;99.90;;;;;;5028994;28;20197;-60
2023/01/07 08:38:04;;;;;;;15.03;2.30;;;11.80;99.90;;;;;;5020771;28;20618;-59
2023/01/07 08:40:29;;;;;;;5.73;1.67;;;11.90;99.90;;;;;;5009943;28;20637;-59
2023/01/07 08:43:03;;;;;;;16.27;2.20;;;11.90;99.90;;;;;;5011207;28;20258;-59
2023/01/07 08:45:30;;;;;;;9.13;2.27;;;12.00;99.90;;;;;;5011188;28;20183;-59
2023/01/07 08:47:58;;;;;;;5.37;1.57;;;12.00;99.90;;;;;;5011039;28;20194;-59
2023/01/07 08:50:29;;;;;;;14.83;1.80;;;10.60;99.90;;;;;;5010939;28;20202;-59
2023/01/07 08:52:55;;;;;;;14.30;2.37;;;12.00;99.90;;;;;;5024109;28;20255;-59
2023/01/07 08:55:21;;;;;;;12.17;2.83;;;12.00;99.90;;;;;;5030564;28;20181;-59
2023/01/07 08:57:47;;;;;;;9.70;2.00;;;11.80;99.90;;;;;;5030676;28;20178;-60
2023/01/07 09:00:17;;;;;;;6.47;1.47;;;11.80;99.90;;;;;;5030158;28;20584;-59
2023/01/07 09:02:43;;;;;;;6.10;1.53;;;11.80;99.90;;;;;;5010798;28;20174;-59
2023/01/07 09:05:10;;;;;;;9.30;2.00;;;11.80;99.90;;;;;;5010743;28;20230;-59
2023/01/07 09:07:35;;;;;;;10.80;1.47;;;11.80;99.90;;;;;;5024365;28;20190;-59
2023/01/07 09:10:02;;;;;;;11.67;2.50;;;11.80;99.90;;;;;;5030093;28;20182;-59
2023/01/07 09:12:27;;;;;;;13.53;1.73;;;12.00;99.90;;;;;;5029807;28;20224;-59
2023/01/07 09:14:53;;;;;;;5.77;1.67;;;11.80;99.90;;;;;;5030519;28;20549;-59
2023/01/07 09:17:19;;;;;;;12.93;1.87;;;11.80;99.90;;;;;;5030202;28;20244;-59
2023/01/07 09:19:45;;;;;;;13.27;2.00;;;11.50;99.90;;;;;;5032734;28;20552;-60
2023/01/07 09:22:10;;;;;;;14.23;2.63;;;11.40;99.90;;;;;;5034308;28;20170;-60
2023/01/07 09:24:36;;;;;;;6.73;1.83;;;11.70;99.90;;;;;;5034286;28;20177;-59
2023/01/07 09:27:01;;;;;;;11.90;2.57;;;11.70;99.90;;;;;;5033405;28;20661;-59
2023/01/07 09:29:27;;;;;;;13.43;1.90;;;;;;;;;;5032064;28;20181;-59
2023/01/07 09:31:53;;;;;;;14.90;1.77;;;11.90;99.90;;;;;;5033221;28;20304;-60
2023/01/07 09:34:19;;;;;;;15.77;2.67;;;11.90;99.90;;;;;;5032049;28;20539;-60
2023/01/07 09:36:44;;;;;;;13.17;2.60;;;11.80;99.90;;;;;;5030917;28;20317;-60
2023/01/07 09:39:11;;;;;;;17.80;2.40;;;11.70;99.90;;;;;;5032832;28;20189;-60
2023/01/07 09:41:58;;;;;;;12.37;2.27;;;11.80;99.90;;;;;;5033978;28;20633;-60
2023/01/07 09:44:55;;;;;;;12.43;2.37;;;11.80;99.90;;;;;;5023852;28;20269;-60
2023/01/07 09:47:25;;;;;;;23.27;3.40;;;11.70;99.90;;;;;;5033624;28;20582;-60
2023/01/07 09:49:55;;;;;;;23.63;3.13;;;11.80;99.90;;;;;;5033821;28;20188;-60
2023/01/07 09:52:37;;;;;;;26.73;2.87;;;10.10;99.90;;;;;;5033314;28;20706;-60
2023/01/07 09:55:15;;;;;;;9.70;1.87;;;11.80;99.90;;;;;;5032803;28;20181;-60
2023/01/07 09:57:40;;;;;;;6.20;1.07;;;11.80;99.90;;;;;;5031625;28;20190;-60
2023/01/07 10:00:18;;;;;;;9.60;1.80;;;12.00;99.90;;;;;;5032957;28;20196;-60
2023/01/07 10:02:55;;;;;;;15.47;2.10;;;11.80;99.90;;;;;;5031777;28;20193;-59
2023/01/07 10:05:33;;;;;;;5.67;1.67;;;11.90;99.90;;;;;;5032357;28;20714;-60
2023/01/07 10:08:21;;;;;;;17.37;2.30;;;11.90;99.90;;;;;;5018127;28;20174;-57
2023/01/07 10:11:23;;;;;;;19.77;2.63;;;11.90;99.90;;;;;;5021694;28;20265;-58
2023/01/07 10:13:54;;;;;;;13.20;2.00;;;11.90;99.90;;;;;;5033099;28;20185;-58
2023/01/07 10:16:30;;;;;;;12.13;2.47;;;11.90;99.90;;;;;;5033267;28;20272;-57
2023/01/07 10:19:27;;;;;;;10.37;1.40;;;11.90;99.90;;;;;;5032173;28;20661;-58
2023/01/07 10:22:01;;;;;;;7.90;2.07;;;12.00;99.90;;;;;;5033197;28;20700;-58
2023/01/07 10:24:35;;;;;;;13.50;1.73;;;12.10;99.90;;;;;;5027267;28;20776;-59
2023/01/07 10:27:06;;;;;;;11.53;2.13;;;12.20;99.90;;;;;;5031649;28;20186;-57
2023/01/07 10:29:38;;;;;;;8.10;1.97;;;12.40;99.90;;;;;;5032739;28;20277;-57
2023/01/07 10:32:13;;;;;;;10.63;1.70;;;12.60;99.90;;;;;;5030760;28;20778;-57
2023/01/07 10:34:44;;;;;;;5.03;1.20;;;12.50;99.90;;;;;;5031373;28;20177;-60
2023/01/07 10:37:22;;;;;;;9.60;1.53;;;12.30;99.90;;;;;;5031789;28;20182;-61
2023/01/07 10:39:56;;;;;;;8.13;1.80;;;12.50;99.90;;;;;;5032202;28;20174;-60
2023/01/07 10:42:34;;;;;;;7.37;1.53;;;12.80;99.90;;;;;;5032498;28;20269;-61
2023/01/07 10:45:41;;;;;;;9.27;1.43;;;13.30;99.90;;;;;;5031959;28;20178;-60
2023/01/07 10:48:24;;;;;;;10.27;1.87;;;13.30;99.90;;;;;;5002417;28;20248;-61
2023/01/07 10:51:31;;;;;;;10.33;1.97;;;13.00;99.90;;;;;;5032434;28;20192;-60
2023/01/07 10:54:30;;;;;;;7.00;1.63;;;12.80;99.90;;;;;;5017883;28;20213;-61
2023/01/07 10:57:04;;;;;;;9.13;1.70;;;12.70;99.90;;;;;;5012615;28;20167;-61
2023/01/07 10:59:30;;;;;;;7.97;1.83;;;;;;;;;;5012656;28;20182;-61
2023/01/07 11:01:58;;;;;;;7.50;1.40;;;12.60;99.90;;;;;;5012616;28;20197;-61
2023/01/07 11:04:25;;;;;;;5.40;1.03;;;12.60;99.90;;;;;;5019158;28;20703;-61
2023/01/07 11:07:20;;;;;;;6.07;1.33;;;12.70;99.90;;;;;;5032378;28;20182;-57
2023/01/07 11:09:47;;;;;;;10.83;1.60;;;12.70;99.90;;;;;;5034709;28;20229;-57
2023/01/07 11:12:39;;;;;;;10.27;1.63;;;12.70;99.90;;;;;;5032111;28;20247;-56
2023/01/07 11:15:49;;;;;;;9.07;1.87;;;12.60;99.90;;;;;;5031873;28;20257;-56
2023/01/07 11:18:34;;;;;;;6.97;1.30;;;12.60;99.90;;;;;;4970842;28;20583;-56
2023/01/07 11:21:00;;;;;;;9.63;1.30;;;12.50;99.90;;;;;;5022568;28;20769;-56
2023/01/07 11:23:36;;;;;;;4.43;0.93;;;12.50;99.90;;;;;;5014381;28;20654;-56
2023/01/07 11:26:21;;;;;;;2.60;0.73;;;12.50;99.90;;;;;;5029921;28;20173;-56
2023/01/07 11:29:13;;;;;;;5.17;1.20;;;12.50;99.90;;;;;;5011999;28;20258;-56
2023/01/07 11:31:59;;;;;;;5.60;1.17;;;12.50;99.90;;;;;;5011989;28;20242;-55
2023/01/07 11:34:30;;;;;;;2.97;0.67;;;12.60;99.90;;;;;;5011927;28;20183;-56
2023/01/07 11:36:56;;;;;;;11.30;1.53;;;12.70;99.90;;;;;;5011739;28;20179;-56
2023/01/07 11:39:28;;;;;;;9.23;1.50;;;12.80;99.90;;;;;;5028297;28;20239;-56
2023/01/07 11:42:37;;;;;;;10.20;1.20;;;12.80;99.90;;;;;;5030922;28;20213;-56
2023/01/07 11:44:48;;;;;;;6.17;1.23;;;14.10;99.90;;;;;;5031166;28;20186;-56
2023/01/07 11:47:16;;;;;;;8.93;1.20;;;14.60;99.90;;;;;;5031391;28;20181;-54
2023/01/07 11:49:44;;;;;;;6.53;1.50;;;13.60;99.90;;;;;;5031536;28;20526;-55
2023/01/07 11:52:19;;;;;;;8.23;1.27;;;13.20;99.90;;;;;;5031076;28;20756;-55
2023/01/07 11:54:50;;;;;;;3.30;0.90;;;12.80;99.90;;;;;;5031616;28;20192;-55
2023/01/07 11:57:24;;;;;;;5.93;1.00;;;13.30;99.90;;;;;;5031434;28;20273;-54
2023/01/07 12:00:14;;;;;;;5.93;1.00;;;12.40;99.90;;;;;;5030633;28;20639;-54
2023/01/07 12:02:40;;;;;;;5.80;0.80;;;12.50;99.90;;;;;;5031389;28;20251;-55
2023/01/07 12:05:22;;;;;;;7.13;1.00;;;12.30;99.90;;;;;;5031146;28;20692;-56
2023/01/07 12:07:50;;;;;;;4.93;1.30;;;12.20;99.90;;;;;;5031310;28;20231;-55
2023/01/07 12:10:37;;;;;;;5.70;0.73;;;12.30;99.90;;;;;;5031031;28;20531;-56
2023/01/07 12:13:14;;;;;;;7.90;0.70;;;12.40;99.90;;;;;;5031058;28;20296;-55
2023/01/07 12:15:52;;;;;;;4.73;0.70;;;12.40;99.90;;;;;;5023368;28;20208;-55
2023/01/07 12:18:24;;;;;;;6.53;0.70;;;15.30;99.90;;;;;;5031030;28;20197;-56
2023/01/07 12:21:16;;;;;;;3.37;0.50;;;16.00;99.90;;;;;;5031289;28;20182;-56
2023/01/07 12:24:00;;;;;;;3.67;0.50;;;19.00;99.90;;;;;;5000794;28;20197;-53
2023/01/07 12:26:37;;;;;;;2.35;0.50;;;20.30;99.90;;;;;;5027604;28;20268;-54
2023/01/07 12:29:34;;;;;;;4.68;0.82;;;20.80;99.90;;;;;;5030944;28;20195;-54
2023/01/07 12:32:09;;;;;;;1.83;0.50;;;20.40;99.90;;;;;;5030823;28;20263;-54
2023/01/07 12:35:10;;;;;;;1.98;0.30;;;21.10;99.90;;;;;;5026658;28;20162;-54
2023/01/07 12:37:37;;;;;;;1.88;0.40;;;19.00;99.90;;;;;;5016719;28;20215;-54
2023/01/07 12:40:09;;;;;;;2.45;0.65;;;20.20;99.90;;;;;;5030553;28;20195;-54
2023/01/07 12:42:39;;;;;;;2.15;0.47;;;20.80;99.90;;;;;;5030322;28;20170;-54
2023/01/07 12:45:18;;;;;;;3.65;0.70;;;19.50;99.90;;;;;;5030700;28;20170;-57
2023/01/07 12:47:51;;;;;;;1.23;0.50;;;18.80;99.90;;;;;;5030450;28;20211;-56
2023/01/07 12:50:44;;;;;;;2.05;0.63;;;20.70;99.90;;;;;;5027454;28;20182;-55
2023/01/07 12:53:23;;;;;;;1.48;0.35;;;21.30;99.90;;;;;;5031680;28;20213;-56
2023/01/07 12:55:57;;;;;;;2.33;0.70;;;20.00;99.90;;;;;;5034842;28;20219;-54
2023/01/07 12:58:48;;;;;;;1.60;0.38;;;19.10;99.90;;;;;;5034356;28;20299;-55
2023/01/07 13:01:43;;;;;;;1.02;0.43;;;20.60;99.90;;;;;;5034301;28;20208;-54
2023/01/07 13:04:26;;;;;;;2.58;0.90;;;18.90;99.90;;;;;;5033629;28;20218;-55
2023/01/07 13:06:57;;;;;;;3.08;0.50;;;20.10;99.90;;;;;;5034435;28;20162;-53